sensor_id;sensor_type;location;lat;lon;timestamp;P1;durP1;ratioP1;P2;durP2;ratioP2
65715;SDS011;63484;52.054;8.518;2023-07-13T00:01:33;6.15;;;1.67;;
65715;SDS011;63484;52.054;8.518;2023-07-13T00:06:35;5.68;;;2.33;;
65715;SDS011;63484;52.054;8.518;2023-07-13T00:11:38;4.22;;;1.92;;
65715;SDS011;63484;52.054;8.518;2023-07-13T00:16:40;3.30;;;1.80;;
65715;SDS011;63484;52.054;8.518;2023-07-13T00:21:43;5.03;;;2.10;;
65715;SDS011;63484;52.054;8.518;2023-07-13T00:26:49;6.90;;;2.00;;
65715;SDS011;63484;52.054;8.518;2023-07-13T00:31:53;6.10;;;2.17;;
65715;SDS011;63484;52.054;8.518;2023-07-13T00:36:55;6.78;;;1.95;;
65715;SDS011;63484;52.054;8.518;2023-07-13T00:41:58;6.35;;;2.00;;
65715;SDS011;63484;52.054;8.518;2023-07-13T00:52:02;9.43;;;1.83;;
65715;SDS011;63484;52.054;8.518;2023-07-13T00:57:09;5.57;;;1.92;;
65715;SDS011;63484;52.054;8.518;2023-07-13T01:02:15;2.53;;;1.70;;
65715;SDS011;63484;52.054;8.518;2023-07-13T01:07:17;10.15;;;1.85;;
65715;SDS011;63484;52.054;8.518;2023-07-13T01:12:20;3.47;;;1.80;;
65715;SDS011;63484;52.054;8.518;2023-07-13T01:17:22;9.77;;;2.05;;
65715;SDS011;63484;52.054;8.518;2023-07-13T01:22:28;3.55;;;1.70;;
65715;SDS011;63484;52.054;8.518;2023-07-13T01:27:31;8.18;;;1.90;;
65715;SDS011;63484;52.054;8.518;2023-07-13T01:32:34;4.95;;;1.85;;
65715;SDS011;63484;52.054;8.518;2023-07-13T01:37:38;6.23;;;1.90;;
65715;SDS011;63484;52.054;8.518;2023-07-13T01:42:40;9.00;;;2.30;;
65715;SDS011;63484;52.054;8.518;2023-07-13T01:47:42;7.47;;;2.08;;
65715;SDS011;63484;52.054;8.518;2023-07-13T01:52:45;4.13;;;2.00;;
65715;SDS011;63484;52.054;8.518;2023-07-13T01:57:48;6.43;;;1.90;;
65715;SDS011;63484;52.054;8.518;2023-07-13T02:02:50;5.68;;;2.55;;
65715;SDS011;63484;52.054;8.518;2023-07-13T02:07:53;9.77;;;2.17;;
65715;SDS011;63484;52.054;8.518;2023-07-13T02:12:55;5.57;;;1.90;;
65715;SDS011;63484;52.054;8.518;2023-07-13T02:17:56;7.47;;;2.33;;
65715;SDS011;63484;52.054;8.518;2023-07-13T02:23:00;7.82;;;2.13;;
65715;SDS011;63484;52.054;8.518;2023-07-13T02:28:01;5.78;;;2.20;;
65715;SDS011;63484;52.054;8.518;2023-07-13T02:33:03;8.07;;;2.55;;
65715;SDS011;63484;52.054;8.518;2023-07-13T02:38:07;6.35;;;2.35;;
65715;SDS011;63484;52.054;8.518;2023-07-13T02:43:09;6.55;;;2.35;;
65715;SDS011;63484;52.054;8.518;2023-07-13T02:48:10;4.90;;;2.13;;
65715;SDS011;63484;52.054;8.518;2023-07-13T02:53:15;5.40;;;2.13;;
65715;SDS011;63484;52.054;8.518;2023-07-13T02:58:17;7.68;;;2.40;;
65715;SDS011;63484;52.054;8.518;2023-07-13T03:03:19;7.97;;;2.30;;
65715;SDS011;63484;52.054;8.518;2023-07-13T03:08:23;11.82;;;2.60;;
65715;SDS011;63484;52.054;8.518;2023-07-13T03:13:26;11.18;;;2.85;;
65715;SDS011;63484;52.054;8.518;2023-07-13T03:18:28;6.13;;;2.58;;
65715;SDS011;63484;52.054;8.518;2023-07-13T03:23:35;5.57;;;2.22;;
65715;SDS011;63484;52.054;8.518;2023-07-13T03:28:37;13.57;;;2.50;;
65715;SDS011;63484;52.054;8.518;2023-07-13T03:33:39;9.05;;;2.17;;
65715;SDS011;63484;52.054;8.518;2023-07-13T03:38:43;10.23;;;2.65;;
65715;SDS011;63484;52.054;8.518;2023-07-13T03:43:44;8.60;;;2.53;;
65715;SDS011;63484;52.054;8.518;2023-07-13T03:48:49;9.35;;;2.80;;
65715;SDS011;63484;52.054;8.518;2023-07-13T03:53:53;9.25;;;2.97;;
65715;SDS011;63484;52.054;8.518;2023-07-13T03:58:57;14.80;;;3.00;;
65715;SDS011;63484;52.054;8.518;2023-07-13T04:04:01;8.18;;;2.63;;
65715;SDS011;63484;52.054;8.518;2023-07-13T04:09:05;10.83;;;2.30;;
65715;SDS011;63484;52.054;8.518;2023-07-13T04:14:08;12.68;;;2.53;;
65715;SDS011;63484;52.054;8.518;2023-07-13T04:19:10;15.75;;;2.60;;
65715;SDS011;63484;52.054;8.518;2023-07-13T04:24:13;7.45;;;2.40;;
65715;SDS011;63484;52.054;8.518;2023-07-13T04:29:17;7.80;;;2.00;;
65715;SDS011;63484;52.054;8.518;2023-07-13T04:34:18;7.88;;;2.40;;
65715;SDS011;63484;52.054;8.518;2023-07-13T04:39:21;7.75;;;1.80;;
65715;SDS011;63484;52.054;8.518;2023-07-13T04:44:23;6.75;;;2.10;;
65715;SDS011;63484;52.054;8.518;2023-07-13T04:49:25;7.93;;;2.20;;
65715;SDS011;63484;52.054;8.518;2023-07-13T04:54:28;7.18;;;2.35;;
65715;SDS011;63484;52.054;8.518;2023-07-13T04:59:30;12.55;;;2.20;;
65715;SDS011;63484;52.054;8.518;2023-07-13T05:04:31;8.57;;;2.03;;
65715;SDS011;63484;52.054;8.518;2023-07-13T05:09:34;7.78;;;2.10;;
65715;SDS011;63484;52.054;8.518;2023-07-13T05:14:36;8.75;;;2.13;;
65715;SDS011;63484;52.054;8.518;2023-07-13T05:19:38;7.43;;;1.98;;
65715;SDS011;63484;52.054;8.518;2023-07-13T05:24:41;10.77;;;1.83;;
65715;SDS011;63484;52.054;8.518;2023-07-13T05:29:43;6.18;;;2.05;;
65715;SDS011;63484;52.054;8.518;2023-07-13T05:34:45;7.25;;;2.03;;
65715;SDS011;63484;52.054;8.518;2023-07-13T05:39:48;8.45;;;1.88;;
65715;SDS011;63484;52.054;8.518;2023-07-13T05:44:50;4.57;;;1.80;;
65715;SDS011;63484;52.054;8.518;2023-07-13T05:49:51;11.43;;;1.85;;
65715;SDS011;63484;52.054;8.518;2023-07-13T05:54:54;6.60;;;1.48;;
65715;SDS011;63484;52.054;8.518;2023-07-13T05:59:56;4.47;;;1.60;;
65715;SDS011;63484;52.054;8.518;2023-07-13T06:04:58;6.63;;;2.10;;
65715;SDS011;63484;52.054;8.518;2023-07-13T06:10:01;4.75;;;1.60;;
65715;SDS011;63484;52.054;8.518;2023-07-13T06:15:03;9.50;;;1.73;;
65715;SDS011;63484;52.054;8.518;2023-07-13T06:20:05;6.88;;;1.60;;
65715;SDS011;63484;52.054;8.518;2023-07-13T06:25:10;8.68;;;1.77;;
65715;SDS011;63484;52.054;8.518;2023-07-13T06:30:12;12.98;;;2.75;;
65715;SDS011;63484;52.054;8.518;2023-07-13T06:35:14;7.32;;;2.00;;
65715;SDS011;63484;52.054;8.518;2023-07-13T06:40:17;11.43;;;2.42;;
65715;SDS011;63484;52.054;8.518;2023-07-13T06:45:18;8.98;;;2.17;;
65715;SDS011;63484;52.054;8.518;2023-07-13T06:50:20;8.73;;;2.42;;
65715;SDS011;63484;52.054;8.518;2023-07-13T06:55:23;9.65;;;1.88;;
65715;SDS011;63484;52.054;8.518;2023-07-13T07:05:26;9.23;;;1.65;;
65715;SDS011;63484;52.054;8.518;2023-07-13T07:10:30;7.53;;;2.20;;
65715;SDS011;63484;52.054;8.518;2023-07-13T07:15:35;9.35;;;2.17;;
65715;SDS011;63484;52.054;8.518;2023-07-13T07:20:37;5.88;;;1.80;;
65715;SDS011;63484;52.054;8.518;2023-07-13T07:25:40;5.85;;;1.95;;
65715;SDS011;63484;52.054;8.518;2023-07-13T07:30:42;9.25;;;2.10;;
65715;SDS011;63484;52.054;8.518;2023-07-13T07:35:46;7.50;;;2.08;;
65715;SDS011;63484;52.054;8.518;2023-07-13T07:40:49;8.07;;;2.05;;
65715;SDS011;63484;52.054;8.518;2023-07-13T07:45:53;7.90;;;2.00;;
65715;SDS011;63484;52.054;8.518;2023-07-13T07:50:55;5.35;;;1.80;;
65715;SDS011;63484;52.054;8.518;2023-07-13T07:55:58;9.05;;;2.17;;
65715;SDS011;63484;52.054;8.518;2023-07-13T08:01:03;6.00;;;1.90;;
65715;SDS011;63484;52.054;8.518;2023-07-13T08:06:06;5.22;;;1.75;;
65715;SDS011;63484;52.054;8.518;2023-07-13T08:11:09;12.00;;;2.15;;
65715;SDS011;63484;52.054;8.518;2023-07-13T08:16:14;5.60;;;1.50;;
65715;SDS011;63484;52.054;8.518;2023-07-13T08:21:15;5.63;;;1.70;;
65715;SDS011;63484;52.054;8.518;2023-07-13T08:26:21;11.77;;;1.67;;
65715;SDS011;63484;52.054;8.518;2023-07-13T08:31:23;7.63;;;1.88;;
65715;SDS011;63484;52.054;8.518;2023-07-13T08:36:25;6.97;;;1.55;;
65715;SDS011;63484;52.054;8.518;2023-07-13T08:46:31;4.97;;;1.67;;
65715;SDS011;63484;52.054;8.518;2023-07-13T08:51:39;9.60;;;2.03;;
65715;SDS011;63484;52.054;8.518;2023-07-13T08:56:48;5.10;;;1.45;;
65715;SDS011;63484;52.054;8.518;2023-07-13T09:07:27;3.53;;;1.55;;
65715;SDS011;63484;52.054;8.518;2023-07-13T09:12:44;9.32;;;1.98;;
65715;SDS011;63484;52.054;8.518;2023-07-13T09:17:52;3.60;;;1.70;;
65715;SDS011;63484;52.054;8.518;2023-07-13T09:22:57;6.20;;;2.40;;
65715;SDS011;63484;52.054;8.518;2023-07-13T09:28:09;4.70;;;2.33;;
65715;SDS011;63484;52.054;8.518;2023-07-13T09:33:14;5.72;;;2.03;;
65715;SDS011;63484;52.054;8.518;2023-07-13T09:38:16;7.00;;;2.20;;
65715;SDS011;63484;52.054;8.518;2023-07-13T09:43:21;6.90;;;1.92;;
65715;SDS011;63484;52.054;8.518;2023-07-13T09:48:23;5.63;;;1.92;;
65715;SDS011;63484;52.054;8.518;2023-07-13T09:53:25;5.20;;;1.85;;
65715;SDS011;63484;52.054;8.518;2023-07-13T09:58:33;4.47;;;1.80;;
65715;SDS011;63484;52.054;8.518;2023-07-13T10:03:36;6.00;;;1.67;;
65715;SDS011;63484;52.054;8.518;2023-07-13T10:08:39;10.13;;;1.80;;
65715;SDS011;63484;52.054;8.518;2023-07-13T10:13:44;4.35;;;1.42;;
65715;SDS011;63484;52.054;8.518;2023-07-13T10:18:58;4.47;;;1.60;;
65715;SDS011;63484;52.054;8.518;2023-07-13T10:24:05;4.50;;;1.40;;
65715;SDS011;63484;52.054;8.518;2023-07-13T10:29:16;5.28;;;1.60;;
65715;SDS011;63484;52.054;8.518;2023-07-13T10:34:19;5.88;;;1.77;;
65715;SDS011;63484;52.054;8.518;2023-07-13T10:39:23;3.10;;;1.60;;
65715;SDS011;63484;52.054;8.518;2023-07-13T10:44:29;5.65;;;2.00;;
65715;SDS011;63484;52.054;8.518;2023-07-13T10:49:32;4.45;;;1.90;;
65715;SDS011;63484;52.054;8.518;2023-07-13T10:54:36;4.35;;;1.90;;
65715;SDS011;63484;52.054;8.518;2023-07-13T10:59:39;4.57;;;2.50;;
65715;SDS011;63484;52.054;8.518;2023-07-13T11:04:44;8.95;;;2.00;;
65715;SDS011;63484;52.054;8.518;2023-07-13T11:09:49;4.43;;;2.38;;
65715;SDS011;63484;52.054;8.518;2023-07-13T11:15:09;4.07;;;2.70;;
65715;SDS011;63484;52.054;8.518;2023-07-13T11:20:20;7.00;;;3.13;;
65715;SDS011;63484;52.054;8.518;2023-07-13T11:25:27;6.57;;;3.30;;
65715;SDS011;63484;52.054;8.518;2023-07-13T11:30:34;7.78;;;3.13;;
65715;SDS011;63484;52.054;8.518;2023-07-13T11:35:48;9.75;;;3.08;;
65715;SDS011;63484;52.054;8.518;2023-07-13T11:40:55;9.55;;;3.70;;
65715;SDS011;63484;52.054;8.518;2023-07-13T11:46:13;4.75;;;3.47;;
65715;SDS011;63484;52.054;8.518;2023-07-13T11:51:18;9.00;;;2.90;;
65715;SDS011;63484;52.054;8.518;2023-07-13T11:56:23;4.75;;;2.40;;
65715;SDS011;63484;52.054;8.518;2023-07-13T12:01:29;6.30;;;2.20;;
65715;SDS011;63484;52.054;8.518;2023-07-13T12:06:33;4.35;;;1.83;;
65715;SDS011;63484;52.054;8.518;2023-07-13T12:11:39;6.90;;;1.98;;
65715;SDS011;63484;52.054;8.518;2023-07-13T12:16:44;6.88;;;2.70;;
65715;SDS011;63484;52.054;8.518;2023-07-13T12:21:49;5.10;;;2.92;;
65715;SDS011;63484;52.054;8.518;2023-07-13T12:26:54;6.68;;;3.00;;
65715;SDS011;63484;52.054;8.518;2023-07-13T12:32:02;4.18;;;2.53;;
65715;SDS011;63484;52.054;8.518;2023-07-13T12:37:10;3.03;;;2.47;;
65715;SDS011;63484;52.054;8.518;2023-07-13T12:42:19;5.75;;;1.90;;
65715;SDS011;63484;52.054;8.518;2023-07-13T12:47:25;3.00;;;2.20;;
65715;SDS011;63484;52.054;8.518;2023-07-13T12:52:28;4.00;;;2.40;;
65715;SDS011;63484;52.054;8.518;2023-07-13T12:57:37;4.90;;;2.10;;
65715;SDS011;63484;52.054;8.518;2023-07-13T13:02:42;2.78;;;2.00;;
65715;SDS011;63484;52.054;8.518;2023-07-13T13:07:43;4.65;;;1.80;;
65715;SDS011;63484;52.054;8.518;2023-07-13T13:12:47;4.43;;;1.80;;
65715;SDS011;63484;52.054;8.518;2023-07-13T13:17:50;3.63;;;1.65;;
65715;SDS011;63484;52.054;8.518;2023-07-13T13:22:54;6.03;;;1.80;;
65715;SDS011;63484;52.054;8.518;2023-07-13T13:27:56;6.07;;;1.83;;
65715;SDS011;63484;52.054;8.518;2023-07-13T13:33:01;4.15;;;1.60;;
65715;SDS011;63484;52.054;8.518;2023-07-13T13:43:15;6.10;;;1.90;;
65715;SDS011;63484;52.054;8.518;2023-07-13T13:48:19;10.48;;;2.40;;
65715;SDS011;63484;52.054;8.518;2023-07-13T13:53:30;4.95;;;2.60;;
65715;SDS011;63484;52.054;8.518;2023-07-13T13:58:34;10.73;;;3.25;;
65715;SDS011;63484;52.054;8.518;2023-07-13T14:03:37;8.00;;;3.30;;
65715;SDS011;63484;52.054;8.518;2023-07-13T14:08:39;5.78;;;3.03;;
65715;SDS011;63484;52.054;8.518;2023-07-13T14:13:43;6.13;;;2.78;;
65715;SDS011;63484;52.054;8.518;2023-07-13T14:18:51;8.65;;;2.83;;
65715;SDS011;63484;52.054;8.518;2023-07-13T14:23:52;5.63;;;3.03;;
65715;SDS011;63484;52.054;8.518;2023-07-13T14:28:55;4.63;;;2.67;;
65715;SDS011;63484;52.054;8.518;2023-07-13T14:34:00;7.53;;;4.38;;
65715;SDS011;63484;52.054;8.518;2023-07-13T14:39:05;5.60;;;2.80;;
65715;SDS011;63484;52.054;8.518;2023-07-13T14:44:13;6.28;;;2.45;;
65715;SDS011;63484;52.054;8.518;2023-07-13T14:49:23;3.45;;;1.80;;
65715;SDS011;63484;52.054;8.518;2023-07-13T14:54:27;2.58;;;1.75;;
65715;SDS011;63484;52.054;8.518;2023-07-13T14:59:29;1.83;;;1.42;;
65715;SDS011;63484;52.054;8.518;2023-07-13T15:04:32;4.05;;;1.98;;
65715;SDS011;63484;52.054;8.518;2023-07-13T15:09:34;4.95;;;2.42;;
65715;SDS011;63484;52.054;8.518;2023-07-13T15:14:37;2.72;;;1.92;;
65715;SDS011;63484;52.054;8.518;2023-07-13T15:19:41;3.22;;;1.95;;
65715;SDS011;63484;52.054;8.518;2023-07-13T15:24:44;5.00;;;1.95;;
65715;SDS011;63484;52.054;8.518;2023-07-13T15:29:47;3.07;;;2.10;;
65715;SDS011;63484;52.054;8.518;2023-07-13T15:34:50;5.32;;;2.35;;
65715;SDS011;63484;52.054;8.518;2023-07-13T15:39:52;7.57;;;2.55;;
65715;SDS011;63484;52.054;8.518;2023-07-13T15:44:53;3.45;;;2.35;;
65715;SDS011;63484;52.054;8.518;2023-07-13T15:49:57;3.75;;;2.30;;
65715;SDS011;63484;52.054;8.518;2023-07-13T15:54:58;5.07;;;2.53;;
65715;SDS011;63484;52.054;8.518;2023-07-13T16:00:02;6.72;;;2.75;;
65715;SDS011;63484;52.054;8.518;2023-07-13T16:05:15;7.47;;;3.15;;
65715;SDS011;63484;52.054;8.518;2023-07-13T16:10:17;3.83;;;2.60;;
65715;SDS011;63484;52.054;8.518;2023-07-13T16:15:21;8.40;;;2.60;;
65715;SDS011;63484;52.054;8.518;2023-07-13T16:20:27;4.45;;;2.42;;
65715;SDS011;63484;52.054;8.518;2023-07-13T16:25:28;4.85;;;2.33;;
65715;SDS011;63484;52.054;8.518;2023-07-13T16:30:30;4.25;;;2.50;;
65715;SDS011;63484;52.054;8.518;2023-07-13T16:35:35;7.80;;;2.63;;
65715;SDS011;63484;52.054;8.518;2023-07-13T16:40:38;6.22;;;2.55;;
65715;SDS011;63484;52.054;8.518;2023-07-13T16:45:41;2.07;;;1.87;;
65715;SDS011;63484;52.054;8.518;2023-07-13T16:50:51;5.22;;;2.63;;
65715;SDS011;63484;52.054;8.518;2023-07-13T16:55:55;7.60;;;2.35;;
65715;SDS011;63484;52.054;8.518;2023-07-13T17:01:00;5.03;;;2.13;;
65715;SDS011;63484;52.054;8.518;2023-07-13T17:06:13;5.00;;;2.15;;
65715;SDS011;63484;52.054;8.518;2023-07-13T17:11:23;4.28;;;2.28;;
65715;SDS011;63484;52.054;8.518;2023-07-13T17:16:29;5.35;;;2.08;;
65715;SDS011;63484;52.054;8.518;2023-07-13T17:21:32;4.35;;;2.10;;
65715;SDS011;63484;52.054;8.518;2023-07-13T17:26:34;8.18;;;4.07;;
65715;SDS011;63484;52.054;8.518;2023-07-13T17:31:36;5.10;;;2.25;;
65715;SDS011;63484;52.054;8.518;2023-07-13T17:36:40;5.63;;;2.13;;
65715;SDS011;63484;52.054;8.518;2023-07-13T17:41:41;5.15;;;2.35;;
65715;SDS011;63484;52.054;8.518;2023-07-13T17:46:47;4.05;;;1.73;;
65715;SDS011;63484;52.054;8.518;2023-07-13T17:51:50;3.50;;;1.67;;
65715;SDS011;63484;52.054;8.518;2023-07-13T17:56:52;3.95;;;2.00;;
65715;SDS011;63484;52.054;8.518;2023-07-13T18:01:54;4.60;;;1.88;;
65715;SDS011;63484;52.054;8.518;2023-07-13T18:06:57;6.20;;;2.00;;
65715;SDS011;63484;52.054;8.518;2023-07-13T18:12:09;3.03;;;1.85;;
65715;SDS011;63484;52.054;8.518;2023-07-13T18:17:12;3.00;;;1.92;;
65715;SDS011;63484;52.054;8.518;2023-07-13T18:22:16;3.85;;;2.15;;
65715;SDS011;63484;52.054;8.518;2023-07-13T18:27:18;7.78;;;2.10;;
65715;SDS011;63484;52.054;8.518;2023-07-13T18:32:20;3.47;;;1.88;;
65715;SDS011;63484;52.054;8.518;2023-07-13T18:37:30;3.13;;;1.90;;
65715;SDS011;63484;52.054;8.518;2023-07-13T18:42:34;3.75;;;2.03;;
65715;SDS011;63484;52.054;8.518;2023-07-13T18:47:36;3.75;;;2.08;;
65715;SDS011;63484;52.054;8.518;2023-07-13T18:52:41;6.03;;;2.50;;
65715;SDS011;63484;52.054;8.518;2023-07-13T18:57:43;4.95;;;2.40;;
65715;SDS011;63484;52.054;8.518;2023-07-13T19:02:46;4.97;;;2.80;;
65715;SDS011;63484;52.054;8.518;2023-07-13T19:07:52;4.80;;;2.67;;
65715;SDS011;63484;52.054;8.518;2023-07-13T19:12:55;8.13;;;2.63;;
65715;SDS011;63484;52.054;8.518;2023-07-13T19:18:00;7.47;;;2.85;;
65715;SDS011;63484;52.054;8.518;2023-07-13T19:23:05;6.00;;;2.70;;
65715;SDS011;63484;52.054;8.518;2023-07-13T19:28:28;5.47;;;2.80;;
65715;SDS011;63484;52.054;8.518;2023-07-13T19:33:40;5.13;;;2.63;;
65715;SDS011;63484;52.054;8.518;2023-07-13T19:38:43;4.38;;;2.90;;
65715;SDS011;63484;52.054;8.518;2023-07-13T19:43:46;3.88;;;3.00;;
65715;SDS011;63484;52.054;8.518;2023-07-13T19:48:49;8.13;;;2.92;;
65715;SDS011;63484;52.054;8.518;2023-07-13T19:53:54;10.95;;;4.13;;
65715;SDS011;63484;52.054;8.518;2023-07-13T19:59:04;5.43;;;3.38;;
65715;SDS011;63484;52.054;8.518;2023-07-13T20:04:19;8.15;;;3.70;;
65715;SDS011;63484;52.054;8.518;2023-07-13T20:09:23;5.82;;;3.78;;
65715;SDS011;63484;52.054;8.518;2023-07-13T20:14:27;7.22;;;4.03;;
65715;SDS011;63484;52.054;8.518;2023-07-13T20:19:30;9.95;;;3.70;;
65715;SDS011;63484;52.054;8.518;2023-07-13T20:24:36;8.93;;;4.25;;
65715;SDS011;63484;52.054;8.518;2023-07-13T20:29:37;9.50;;;4.03;;
65715;SDS011;63484;52.054;8.518;2023-07-13T20:34:39;7.28;;;4.70;;
65715;SDS011;63484;52.054;8.518;2023-07-13T20:39:43;8.50;;;4.75;;
65715;SDS011;63484;52.054;8.518;2023-07-13T20:44:45;6.68;;;4.25;;
65715;SDS011;63484;52.054;8.518;2023-07-13T20:49:47;11.48;;;5.07;;
65715;SDS011;63484;52.054;8.518;2023-07-13T20:54:54;8.68;;;4.72;;
65715;SDS011;63484;52.054;8.518;2023-07-13T20:59:56;9.18;;;4.53;;
65715;SDS011;63484;52.054;8.518;2023-07-13T21:04:58;12.38;;;4.32;;
65715;SDS011;63484;52.054;8.518;2023-07-13T21:10:18;7.47;;;3.42;;
65715;SDS011;63484;52.054;8.518;2023-07-13T21:15:22;6.63;;;3.47;;
65715;SDS011;63484;52.054;8.518;2023-07-13T21:20:27;6.57;;;3.30;;
65715;SDS011;63484;52.054;8.518;2023-07-13T21:25:32;7.43;;;3.88;;
65715;SDS011;63484;52.054;8.518;2023-07-13T21:30:35;5.65;;;3.28;;
65715;SDS011;63484;52.054;8.518;2023-07-13T21:35:41;7.60;;;3.47;;
65715;SDS011;63484;52.054;8.518;2023-07-13T21:40:47;6.07;;;3.53;;
65715;SDS011;63484;52.054;8.518;2023-07-13T21:45:49;6.60;;;3.35;;
65715;SDS011;63484;52.054;8.518;2023-07-13T21:50:52;9.32;;;3.95;;
65715;SDS011;63484;52.054;8.518;2023-07-13T21:55:57;7.75;;;3.70;;
65715;SDS011;63484;52.054;8.518;2023-07-13T22:01:00;6.82;;;3.78;;
65715;SDS011;63484;52.054;8.518;2023-07-13T22:06:03;8.05;;;3.80;;
65715;SDS011;63484;52.054;8.518;2023-07-13T22:11:11;5.03;;;3.40;;
65715;SDS011;63484;52.054;8.518;2023-07-13T22:16:15;7.25;;;3.67;;
65715;SDS011;63484;52.054;8.518;2023-07-13T22:21:22;5.70;;;3.35;;
65715;SDS011;63484;52.054;8.518;2023-07-13T22:26:27;6.65;;;3.25;;
65715;SDS011;63484;52.054;8.518;2023-07-13T22:31:30;5.78;;;3.58;;
65715;SDS011;63484;52.054;8.518;2023-07-13T22:36:32;8.07;;;3.72;;
65715;SDS011;63484;52.054;8.518;2023-07-13T22:41:35;6.90;;;3.78;;
65715;SDS011;63484;52.054;8.518;2023-07-13T22:46:36;7.23;;;3.60;;
65715;SDS011;63484;52.054;8.518;2023-07-13T22:51:38;16.75;;;7.60;;
65715;SDS011;63484;52.054;8.518;2023-07-13T22:56:44;8.80;;;4.18;;
65715;SDS011;63484;52.054;8.518;2023-07-13T23:01:46;7.55;;;3.90;;
65715;SDS011;63484;52.054;8.518;2023-07-13T23:06:48;7.38;;;3.92;;
65715;SDS011;63484;52.054;8.518;2023-07-13T23:11:53;6.35;;;3.60;;
65715;SDS011;63484;52.054;8.518;2023-07-13T23:16:55;7.07;;;4.22;;
65715;SDS011;63484;52.054;8.518;2023-07-13T23:21:59;9.77;;;4.40;;
65715;SDS011;63484;52.054;8.518;2023-07-13T23:27:02;10.65;;;4.20;;
65715;SDS011;63484;52.054;8.518;2023-07-13T23:37:13;8.25;;;4.30;;
65715;SDS011;63484;52.054;8.518;2023-07-13T23:42:18;5.72;;;4.03;;
65715;SDS011;63484;52.054;8.518;2023-07-13T23:47:20;10.63;;;4.40;;
65715;SDS011;63484;52.054;8.518;2023-07-13T23:52:22;7.55;;;3.83;;
65715;SDS011;63484;52.054;8.518;2023-07-13T23:57:25;8.65;;;4.20;;
